Time;durP1;ratioP1;P1;durP2;ratioP2;P2;SDS_P1;SDS_P2;PMS_P1;PMS_P2;Temp;Humidity;BMP_temperature;BMP_pressure;BME280_temperature;BME280_humidity;BME280_pressure;Samples;Min_cycle;Max_cycle;Signal;HPM_P1;HPM_P2
2023/09/18 00:00:51;;;;;;;88.20;55.33;;;17.90;99.90;;;;;;4974254;28;20186;-69
2023/09/18 00:03:20;;;;;;;98.10;57.08;;;17.90;99.90;;;;;;4973724;28;20237;-68
2023/09/18 00:05:50;;;;;;;106.93;59.22;;;17.90;99.90;;;;;;4973918;28;20194;-69
2023/09/18 00:08:17;;;;;;;93.85;57.78;;;17.90;99.90;;;;;;4955209;28;20209;-70
2023/09/18 00:10:51;;;;;;;103.18;61.00;;;17.90;99.90;;;;;;4973959;28;20228;-69
2023/09/18 00:13:16;;;;;;;108.63;59.90;;;17.90;99.90;;;;;;4973740;28;20272;-69
2023/09/18 00:15:46;;;;;;;111.10;61.58;;;17.90;99.90;;;;;;4973860;28;20276;-68
2023/09/18 00:18:14;;;;;;;108.53;60.90;;;17.90;99.90;;;;;;4974020;28;20281;-70
2023/09/18 00:20:41;;;;;;;106.00;61.05;;;17.90;99.90;;;;;;4969738;28;20216;-70
2023/09/18 00:23:07;;;;;;;102.82;59.42;;;17.90;99.90;;;;;;4954172;28;20222;-70
2023/09/18 00:25:33;;;;;;;103.40;60.13;;;17.90;99.90;;;;;;4972773;28;20190;-69
2023/09/18 00:27:59;;;;;;;103.63;59.63;;;17.90;99.90;;;;;;4973574;28;20657;-69
2023/09/18 00:30:25;;;;;;;102.10;58.17;;;17.90;99.90;;;;;;4955616;28;20197;-70
2023/09/18 00:32:51;;;;;;;101.15;57.95;;;17.90;99.90;;;;;;4955054;28;20602;-69
2023/09/18 00:35:17;;;;;;;102.60;58.95;;;17.90;99.90;;;;;;4973021;28;20273;-69
2023/09/18 00:37:44;;;;;;;101.55;58.47;;;17.90;99.90;;;;;;4969355;28;20620;-68
2023/09/18 00:40:11;;;;;;;100.97;57.60;;;17.80;99.90;;;;;;4982534;28;20221;-68
2023/09/18 00:42:37;;;;;;;101.10;58.65;;;17.80;99.90;;;;;;4973237;28;20272;-67
2023/09/18 00:45:03;;;;;;;102.88;59.95;;;17.80;99.90;;;;;;4971068;28;20289;-69
2023/09/18 00:47:29;;;;;;;96.15;57.97;;;17.80;99.90;;;;;;4953388;28;20610;-69
2023/09/18 00:49:56;;;;;;;101.63;59.75;;;17.80;99.90;;;;;;4973012;28;20194;-69
2023/09/18 00:52:23;;;;;;;104.55;59.67;;;17.80;99.90;;;;;;4972911;28;20229;-69
2023/09/18 00:54:50;;;;;;;101.45;58.53;;;17.80;99.90;;;;;;4949843;28;20209;-69
2023/09/18 00:57:16;;;;;;;108.72;60.60;;;17.80;99.90;;;;;;4972649;28;20250;-68
2023/09/18 00:59:44;;;;;;;110.57;60.10;;;17.80;99.90;;;;;;4972772;28;20228;-68
2023/09/18 01:02:10;;;;;;;104.93;60.88;;;17.80;99.90;;;;;;4973049;28;20286;-68
2023/09/18 01:04:37;;;;;;;110.90;61.58;;;17.80;99.90;;;;;;4969093;28;20330;-68
2023/09/18 01:07:04;;;;;;;106.80;60.33;;;17.80;99.90;;;;;;4967383;28;20228;-72
2023/09/18 01:09:34;;;;;;;109.97;61.38;;;17.80;99.90;;;;;;4966934;28;20197;-69
2023/09/18 01:12:31;;;;;;;113.30;62.80;;;17.80;99.90;;;;;;4955755;28;20244;-70
2023/09/18 01:15:07;;;;;;;110.35;62.17;;;17.80;99.90;;;;;;4972292;28;20224;-68
2023/09/18 01:17:40;;;;;;;109.93;61.58;;;17.80;99.90;;;;;;4951575;28;20276;-69
2023/09/18 01:20:09;;;;;;;106.15;62.63;;;17.80;99.90;;;;;;4954653;28;20213;-70
2023/09/18 01:22:35;;;;;;;110.85;61.13;;;17.80;99.90;;;;;;4974935;28;20686;-70
2023/09/18 01:25:02;;;;;;;109.85;61.88;;;17.80;99.90;;;;;;4973736;28;20297;-68
2023/09/18 01:27:29;;;;;;;114.35;63.25;;;17.70;99.90;;;;;;4972563;28;20619;-67
2023/09/18 01:29:55;;;;;;;110.95;62.67;;;17.70;99.90;;;;;;4968477;28;20307;-71
2023/09/18 01:32:26;;;;;;;114.60;64.40;;;17.70;99.90;;;;;;4951619;28;20222;-70
2023/09/18 01:34:54;;;;;;;113.13;63.58;;;17.70;99.90;;;;;;4955265;28;20214;-69
2023/09/18 01:37:23;;;;;;;111.32;64.45;;;17.70;99.90;;;;;;4972816;28;20193;-69
2023/09/18 01:39:52;;;;;;;127.55;66.97;;;17.70;99.90;;;;;;4972006;28;20190;-69
2023/09/18 01:42:18;;;;;;;118.15;66.25;;;17.70;99.90;;;;;;4972698;28;20178;-70
2023/09/18 01:44:46;;;;;;;123.13;68.00;;;17.70;99.90;;;;;;4973187;28;20209;-69
2023/09/18 01:47:16;;;;;;;115.70;66.75;;;17.70;99.90;;;;;;4955674;28;20190;-68
2023/09/18 01:49:43;;;;;;;118.63;65.13;;;17.70;99.90;;;;;;4972895;28;20689;-68
2023/09/18 01:52:10;;;;;;;109.38;62.63;;;17.70;99.90;;;;;;4952077;28;20404;-69
2023/09/18 01:54:36;;;;;;;113.75;66.38;;;17.70;99.90;;;;;;4971054;28;20238;-70
2023/09/18 01:57:03;;;;;;;117.63;66.90;;;17.70;99.90;;;;;;4953910;28;20272;-69
2023/09/18 01:59:29;;;;;;;116.13;64.60;;;17.70;99.90;;;;;;4939133;28;20182;-69
2023/09/18 02:01:55;;;;;;;113.30;66.05;;;17.60;99.90;;;;;;4955243;28;20526;-69
2023/09/18 02:04:22;;;;;;;110.47;65.68;;;17.60;99.90;;;;;;4970896;28;20182;-69
2023/09/18 02:06:49;;;;;;;114.07;64.97;;;17.60;99.90;;;;;;4969097;28;20193;-69
2023/09/18 02:09:16;;;;;;;113.13;64.20;;;17.60;99.90;;;;;;4975055;28;20191;-70
2023/09/18 02:11:44;;;;;;;104.50;63.00;;;17.60;99.90;;;;;;4958669;28;20217;-69
2023/09/18 02:14:10;;;;;;;105.25;61.95;;;17.60;99.90;;;;;;4958702;28;20197;-69
2023/09/18 02:16:40;;;;;;;103.88;64.15;;;17.60;99.90;;;;;;4940648;28;20190;-68
2023/09/18 02:19:08;;;;;;;103.45;63.22;;;17.70;99.90;;;;;;4939272;28;20593;-69
2023/09/18 02:21:34;;;;;;;101.20;61.75;;;17.70;99.90;;;;;;4976031;28;20186;-69
2023/09/18 02:24:00;;;;;;;96.88;62.10;;;17.70;99.90;;;;;;4958110;28;20608;-69
2023/09/18 02:26:26;;;;;;;100.07;61.25;;;17.70;99.90;;;;;;4975751;28;20276;-69
2023/09/18 02:28:54;;;;;;;90.85;58.08;;;17.70;99.90;;;;;;4974538;28;20182;-70
2023/09/18 02:31:20;;;;;;;90.53;58.58;;;17.60;99.90;;;;;;4975384;28;20678;-70
2023/09/18 02:33:47;;;;;;;88.78;58.13;;;17.70;99.90;;;;;;4973969;28;20214;-71
2023/09/18 02:36:13;;;;;;;84.55;57.55;;;17.70;99.90;;;;;;4975551;28;20194;-68
2023/09/18 02:38:39;;;;;;;89.30;59.35;;;17.70;99.90;;;;;;4957830;28;20189;-71
2023/09/18 02:41:05;;;;;;;86.82;56.72;;;17.70;99.90;;;;;;4957774;28;20193;-69
2023/09/18 02:43:31;;;;;;;82.00;55.50;;;17.70;99.90;;;;;;4953682;28;20190;-69
2023/09/18 02:45:57;;;;;;;80.78;54.78;;;17.70;99.90;;;;;;4958012;28;20611;-69
2023/09/18 02:48:24;;;;;;;80.28;53.95;;;17.70;99.90;;;;;;4958332;28;20194;-71
2023/09/18 02:50:50;;;;;;;79.25;54.90;;;17.70;99.90;;;;;;4958285;28;20218;-69
2023/09/18 02:53:21;;;;;;;78.82;53.95;;;17.70;99.90;;;;;;4941884;28;20596;-70
2023/09/18 02:55:51;;;;;;;78.68;53.75;;;17.70;99.90;;;;;;4970061;28;20194;-70
2023/09/18 02:58:18;;;;;;;77.68;54.33;;;17.70;99.90;;;;;;4989767;28;20561;-71
2023/09/18 03:00:47;;;;;;;78.30;53.15;;;17.70;99.90;;;;;;4975170;28;20194;-70
2023/09/18 03:03:14;;;;;;;73.03;52.45;;;17.70;99.90;;;;;;4957789;28;20189;-70
2023/09/18 03:05:41;;;;;;;71.43;52.78;;;17.80;99.90;;;;;;4941759;28;20182;-69
2023/09/18 03:08:08;;;;;;;70.53;52.38;;;17.80;99.90;;;;;;4970315;28;20273;-71
2023/09/18 03:10:35;;;;;;;73.82;50.50;;;17.80;99.90;;;;;;4988331;28;20232;-70
2023/09/18 03:13:02;;;;;;;71.90;51.33;;;17.80;99.90;;;;;;4974695;28;20212;-72
2023/09/18 03:15:30;;;;;;;73.38;51.50;;;17.80;99.90;;;;;;4957049;28;20774;-71
2023/09/18 03:17:57;;;;;;;67.00;50.85;;;17.80;99.90;;;;;;4974636;28;20189;-71
2023/09/18 03:20:28;;;;;;;71.32;50.95;;;17.80;99.90;;;;;;4970404;28;20186;-71
2023/09/18 03:23:00;;;;;;;69.43;50.03;;;17.80;99.90;;;;;;4956294;28;20181;-70
2023/09/18 03:25:27;;;;;;;67.78;48.90;;;17.80;99.90;;;;;;4956826;28;20190;-70
2023/09/18 03:27:54;;;;;;;65.53;47.47;;;17.90;99.90;;;;;;4956954;28;20256;-69
2023/09/18 03:30:26;;;;;;;58.28;45.70;;;17.90;99.90;;;;;;4956586;28;20194;-70
2023/09/18 03:32:53;;;;;;;62.47;46.28;;;17.90;99.90;;;;;;4948931;28;20639;-69
2023/09/18 03:35:20;;;;;;;62.80;47.92;;;17.90;99.90;;;;;;4951090;28;20251;-70
2023/09/18 03:37:49;;;;;;;63.90;46.63;;;17.90;99.90;;;;;;4957493;28;20216;-70
2023/09/18 03:40:16;;;;;;;58.35;44.92;;;17.90;99.90;;;;;;4956801;28;20193;-69
2023/09/18 03:42:42;;;;;;;59.95;45.78;;;17.90;99.90;;;;;;4956895;28;20192;-72
2023/09/18 03:45:09;;;;;;;58.40;43.75;;;17.90;99.90;;;;;;4952820;28;20190;-70
2023/09/18 03:47:36;;;;;;;60.08;42.92;;;17.90;99.90;;;;;;4957363;28;20398;-70
2023/09/18 03:50:03;;;;;;;57.58;43.55;;;17.90;99.90;;;;;;4956645;28;20221;-70
2023/09/18 03:52:30;;;;;;;60.47;43.42;;;17.90;99.90;;;;;;4941014;28;20228;-71
2023/09/18 03:54:55;;;;;;;61.60;41.63;;;17.90;99.90;;;;;;4956198;28;20221;-72
2023/09/18 03:57:21;;;;;;;57.88;42.00;;;17.90;99.90;;;;;;4969535;28;20238;-69
2023/09/18 03:59:47;;;;;;;51.75;40.58;;;17.90;99.90;;;;;;4952252;28;20190;-70
2023/09/18 04:02:13;;;;;;;52.33;40.00;;;17.90;99.90;;;;;;4971118;28;20622;-70
2023/09/18 04:04:39;;;;;;;51.47;38.95;;;17.90;99.90;;;;;;4934591;28;20570;-70
2023/09/18 04:07:06;;;;;;;50.78;38.00;;;17.90;99.90;;;;;;4955163;28;20728;-70
2023/09/18 04:09:34;;;;;;;45.70;37.42;;;17.90;99.90;;;;;;4975723;28;20193;-71
2023/09/18 04:12:07;;;;;;;45.50;36.67;;;17.90;99.90;;;;;;4974545;28;20748;-70
2023/09/18 04:14:33;;;;;;;48.30;37.05;;;17.90;99.90;;;;;;4967064;28;20196;-71
2023/09/18 04:17:00;;;;;;;46.45;34.72;;;17.90;99.90;;;;;;4950291;28;20190;-70
2023/09/18 04:19:26;;;;;;;47.35;35.22;;;18.00;99.90;;;;;;4972647;28;20634;-72
2023/09/18 04:21:53;;;;;;;47.92;34.55;;;18.00;99.90;;;;;;4955169;28;20661;-71
2023/09/18 04:24:19;;;;;;;49.72;34.40;;;18.00;99.90;;;;;;4972379;28;20244;-71
2023/09/18 04:26:45;;;;;;;43.80;33.50;;;18.00;99.90;;;;;;4956233;28;20244;-71
2023/09/18 04:29:11;;;;;;;39.70;32.35;;;18.00;99.90;;;;;;4956451;28;20186;-70
2023/09/18 04:31:38;;;;;;;45.42;32.15;;;18.00;99.90;;;;;;4955126;28;20205;-70
2023/09/18 04:34:04;;;;;;;43.22;32.05;;;18.10;99.90;;;;;;4955927;28;20240;-70
2023/09/18 04:36:31;;;;;;;43.85;32.03;;;18.10;99.90;;;;;;4951728;28;20182;-70
2023/09/18 04:38:57;;;;;;;39.90;31.15;;;18.10;99.90;;;;;;4973155;28;20281;-71
2023/09/18 04:41:23;;;;;;;41.33;31.58;;;18.10;99.90;;;;;;4955982;28;20217;-71
2023/09/18 04:43:51;;;;;;;40.72;30.52;;;18.10;99.90;;;;;;4956256;28;20594;-69
2023/09/18 04:46:17;;;;;;;41.67;30.02;;;18.10;99.90;;;;;;4972265;28;20186;-69
2023/09/18 04:48:44;;;;;;;43.70;30.48;;;18.10;99.90;;;;;;4956064;28;20237;-70
2023/09/18 04:51:12;;;;;;;36.42;29.15;;;18.20;99.90;;;;;;4924038;28;20241;-70
2023/09/18 04:53:38;;;;;;;36.90;28.98;;;18.20;99.90;;;;;;4972977;28;20674;-70
2023/09/18 04:56:04;;;;;;;42.25;29.73;;;18.20;99.90;;;;;;4937463;28;20222;-70
2023/09/18 04:58:31;;;;;;;39.40;29.25;;;18.20;99.90;;;;;;4950577;28;20580;-74
2023/09/18 05:00:59;;;;;;;41.92;29.73;;;18.30;99.90;;;;;;4968257;28;20276;-70
2023/09/18 05:03:26;;;;;;;42.63;28.65;;;18.30;99.90;;;;;;4935023;28;20615;-70
2023/09/18 05:05:53;;;;;;;42.28;31.92;;;18.30;99.90;;;;;;4954676;28;20182;-69
2023/09/18 05:08:19;;;;;;;39.20;28.52;;;18.30;99.90;;;;;;4970616;28;20623;-69
2023/09/18 05:10:46;;;;;;;37.22;27.83;;;18.30;99.90;;;;;;4970452;28;20232;-69
2023/09/18 05:13:12;;;;;;;40.95;27.05;;;18.40;99.90;;;;;;4951616;28;20240;-74
2023/09/18 05:15:41;;;;;;;35.88;26.88;;;18.40;99.90;;;;;;4971703;28;20182;-70
2023/09/18 05:18:06;;;;;;;39.05;26.77;;;18.40;99.90;;;;;;4955241;28;20217;-70
2023/09/18 05:20:34;;;;;;;37.33;26.20;;;18.50;99.90;;;;;;4971745;28;20221;-71
2023/09/18 05:23:01;;;;;;;36.72;26.05;;;18.50;99.90;;;;;;4972904;28;20198;-70
2023/09/18 05:25:31;;;;;;;34.22;25.10;;;18.50;99.90;;;;;;4972020;28;20706;-71
2023/09/18 05:27:59;;;;;;;36.70;25.65;;;18.50;99.90;;;;;;4944881;28;20665;-70
2023/09/18 05:30:32;;;;;;;36.30;25.20;;;18.60;99.90;;;;;;4972450;28;20241;-69
2023/09/18 05:33:04;;;;;;;35.78;25.55;;;18.60;99.90;;;;;;4967998;28;20193;-71
2023/09/18 05:35:42;;;;;;;31.67;24.67;;;18.60;99.90;;;;;;4971916;28;20178;-71
2023/09/18 05:38:13;;;;;;;37.70;23.15;;;18.70;99.90;;;;;;4971767;28;20193;-71
2023/09/18 05:40:39;;;;;;;32.95;23.00;;;18.70;99.90;;;;;;4955046;28;20177;-72
2023/09/18 05:43:06;;;;;;;32.70;22.35;;;18.70;99.90;;;;;;4953450;28;20206;-70
2023/09/18 05:45:32;;;;;;;35.05;21.80;;;18.80;99.90;;;;;;4975378;28;20177;-68
2023/09/18 05:48:03;;;;;;;36.53;23.13;;;18.80;99.90;;;;;;4958664;28;20233;-69
2023/09/18 05:50:31;;;;;;;30.80;20.67;;;18.80;99.90;;;;;;4958520;28;20240;-68
2023/09/18 05:53:03;;;;;;;32.95;20.63;;;18.90;99.90;;;;;;4958060;28;20190;-68
2023/09/18 05:55:33;;;;;;;32.58;20.48;;;18.90;99.90;;;;;;4975227;28;20182;-67
2023/09/18 05:58:00;;;;;;;32.45;22.08;;;18.90;99.90;;;;;;4975917;28;20221;-70
2023/09/18 06:00:27;;;;;;;33.63;22.88;;;19.00;99.90;;;;;;4974268;28;20190;-71
2023/09/18 06:02:53;;;;;;;36.15;22.95;;;19.00;99.90;;;;;;4974921;28;20749;-69
2023/09/18 06:05:21;;;;;;;33.20;23.00;;;19.00;99.90;;;;;;4956987;28;20252;-67
2023/09/18 06:07:48;;;;;;;35.30;24.80;;;19.00;99.90;;;;;;4975379;28;20264;-68
2023/09/18 06:10:14;;;;;;;34.72;24.25;;;19.00;99.90;;;;;;4975622;28;20182;-70
2023/09/18 06:12:40;;;;;;;35.92;25.27;;;19.10;99.90;;;;;;4975976;28;20220;-69
2023/09/18 06:15:11;;;;;;;26.58;20.90;;;19.10;99.90;;;;;;4958057;28;20193;-68
2023/09/18 06:17:39;;;;;;;26.58;19.77;;;19.10;99.90;;;;;;4971017;28;20194;-73
2023/09/18 06:20:09;;;;;;;29.95;19.60;;;19.10;99.90;;;;;;4956216;28;20189;-71
2023/09/18 06:22:35;;;;;;;30.00;18.60;;;19.20;99.90;;;;;;4975297;28;20185;-73
2023/09/18 06:25:01;;;;;;;27.70;17.77;;;19.20;99.90;;;;;;4975003;28;20528;-73
2023/09/18 06:27:27;;;;;;;26.17;18.30;;;19.20;99.90;;;;;;4971483;28;20289;-71
2023/09/18 06:29:53;;;;;;;23.38;17.98;;;19.30;99.90;;;;;;4975780;28;20280;-73
2023/09/18 06:32:19;;;;;;;24.48;16.77;;;19.30;99.90;;;;;;4974536;28;20221;-71
2023/09/18 06:34:47;;;;;;;22.83;16.40;;;19.30;99.90;;;;;;4957314;28;20289;-71
2023/09/18 06:37:13;;;;;;;26.38;18.10;;;19.40;99.90;;;;;;4974759;28;20194;-71
2023/09/18 06:39:39;;;;;;;19.17;14.75;;;19.40;99.90;;;;;;4960100;28;20181;-72
2023/09/18 06:42:05;;;;;;;29.60;14.35;;;19.40;99.90;;;;;;4974680;28;20237;-65
2023/09/18 06:44:31;;;;;;;19.73;14.43;;;19.50;99.90;;;;;;4974726;28;20265;-64
2023/09/18 06:46:57;;;;;;;21.30;13.73;;;19.50;99.90;;;;;;4974181;28;20288;-68
2023/09/18 06:49:24;;;;;;;21.65;13.02;;;19.50;99.90;;;;;;4974722;28;20204;-66
2023/09/18 06:51:50;;;;;;;24.42;13.82;;;19.60;99.90;;;;;;4974347;28;20214;-67
2023/09/18 06:54:16;;;;;;;21.90;13.18;;;19.60;99.90;;;;;;4972214;28;20201;-64
2023/09/18 06:56:44;;;;;;;21.35;13.57;;;19.60;99.90;;;;;;4973976;28;20242;-64
2023/09/18 06:59:11;;;;;;;28.15;13.00;;;19.70;99.90;;;;;;4974040;28;20198;-65
2023/09/18 07:01:38;;;;;;;19.38;12.75;;;19.70;99.90;;;;;;4956661;28;20201;-66
2023/09/18 07:04:04;;;;;;;27.90;12.60;;;19.70;99.90;;;;;;4956405;28;20190;-69
2023/09/18 07:06:30;;;;;;;28.42;14.95;;;19.70;99.90;;;;;;4956344;28;20198;-69
2023/09/18 07:08:56;;;;;;;20.42;13.82;;;19.80;99.90;;;;;;4974504;28;20209;-69
2023/09/18 07:11:22;;;;;;;24.00;14.15;;;19.70;99.90;;;;;;4973248;28;20244;-69
2023/09/18 07:13:48;;;;;;;26.05;15.52;;;19.80;99.90;;;;;;4966609;28;20713;-70
2023/09/18 07:16:14;;;;;;;20.88;15.27;;;19.80;99.90;;;;;;4972461;28;20182;-74
2023/09/18 07:18:40;;;;;;;22.95;17.10;;;19.80;99.90;;;;;;4974326;28;20200;-69
2023/09/18 07:21:07;;;;;;;26.67;15.68;;;19.80;99.90;;;;;;4973495;28;20303;-72
2023/09/18 07:23:36;;;;;;;23.58;15.82;;;19.80;99.90;;;;;;4973355;28;20631;-73
2023/09/18 07:26:02;;;;;;;27.30;16.30;;;19.80;99.90;;;;;;4952525;28;20205;-71
2023/09/18 07:28:28;;;;;;;19.77;15.90;;;19.80;99.90;;;;;;4973332;28;20554;-70
2023/09/18 07:30:54;;;;;;;23.48;16.33;;;19.70;99.90;;;;;;4974372;28;20308;-67
2023/09/18 07:33:20;;;;;;;34.30;17.30;;;19.70;99.90;;;;;;4974006;28;20677;-69
2023/09/18 07:35:51;;;;;;;31.92;17.55;;;19.70;99.90;;;;;;4972696;28;20304;-73
2023/09/18 07:38:19;;;;;;;27.77;17.48;;;19.70;99.90;;;;;;4974276;28;20182;-70
2023/09/18 07:40:47;;;;;;;30.98;17.45;;;19.70;99.90;;;;;;4973040;28;20204;-72
2023/09/18 07:43:13;;;;;;;39.20;18.70;;;19.70;99.90;;;;;;4970873;28;20190;-68
2023/09/18 07:45:40;;;;;;;30.42;20.02;;;19.70;99.90;;;;;;4971271;28;20189;-70
2023/09/18 07:48:07;;;;;;;29.13;19.63;;;19.60;99.90;;;;;;4973403;28;20190;-66
2023/09/18 07:50:36;;;;;;;33.25;20.05;;;19.60;99.90;;;;;;4956114;28;20552;-70
2023/09/18 07:53:03;;;;;;;34.53;20.65;;;19.60;99.90;;;;;;4974283;28;20185;-70
2023/09/18 07:55:29;;;;;;;33.38;21.92;;;19.60;99.90;;;;;;4938869;28;20190;-69
2023/09/18 07:57:56;;;;;;;31.20;21.20;;;19.60;99.90;;;;;;4972586;28;20706;-72
2023/09/18 08:00:22;;;;;;;37.88;21.52;;;19.50;99.90;;;;;;4967125;28;20181;-68
2023/09/18 08:02:50;;;;;;;29.13;19.63;;;19.50;99.90;;;;;;4956450;28;20193;-67
2023/09/18 08:05:17;;;;;;;32.63;21.42;;;19.50;99.90;;;;;;4972210;28;20193;-68
2023/09/18 08:07:43;;;;;;;34.20;23.63;;;19.50;99.90;;;;;;4975649;28;20185;-67
2023/09/18 08:10:09;;;;;;;31.48;22.85;;;19.50;99.90;;;;;;4972926;28;20212;-66
2023/09/18 08:12:35;;;;;;;35.53;22.95;;;19.60;99.90;;;;;;4953651;28;20256;-75
2023/09/18 08:15:02;;;;;;;36.60;23.17;;;19.60;99.90;;;;;;4968263;28;20653;-70
2023/09/18 08:17:30;;;;;;;34.45;22.85;;;19.60;99.90;;;;;;4954621;28;20277;-67
2023/09/18 08:19:58;;;;;;;34.47;23.75;;;19.60;99.90;;;;;;4973298;28;20194;-66
2023/09/18 08:22:24;;;;;;;33.08;22.80;;;19.60;99.90;;;;;;4973573;28;20217;-67
2023/09/18 08:24:52;;;;;;;30.17;21.48;;;19.60;99.90;;;;;;4953432;28;20190;-66
2023/09/18 08:27:19;;;;;;;30.92;22.10;;;19.60;99.90;;;;;;4953827;28;20205;-65
2023/09/18 08:29:45;;;;;;;27.67;20.42;;;19.60;99.90;;;;;;4955749;28;20190;-69
2023/09/18 08:32:11;;;;;;;31.05;20.65;;;19.60;99.90;;;;;;4973614;28;20257;-67
2023/09/18 08:34:37;;;;;;;27.25;20.35;;;19.70;99.90;;;;;;4954824;28;20220;-67
2023/09/18 08:37:04;;;;;;;30.42;19.63;;;19.70;99.90;;;;;;4952054;28;20609;-67
2023/09/18 08:39:32;;;;;;;27.90;19.75;;;19.70;99.90;;;;;;4970094;28;20193;-67
2023/09/18 08:42:03;;;;;;;31.35;21.33;;;19.70;99.90;;;;;;4972899;28;20678;-67
2023/09/18 08:44:30;;;;;;;31.55;19.23;;;19.70;99.90;;;;;;4966834;28;20186;-67
2023/09/18 08:46:57;;;;;;;30.48;18.20;;;19.70;99.90;;;;;;4973062;28;20680;-66
2023/09/18 08:49:28;;;;;;;30.73;17.65;;;19.70;99.90;;;;;;4971820;28;20190;-66
2023/09/18 08:51:55;;;;;;;28.88;20.50;;;19.70;99.90;;;;;;4973113;28;20228;-66
2023/09/18 08:54:24;;;;;;;26.17;17.90;;;19.80;99.90;;;;;;4972234;28;20193;-66
2023/09/18 08:56:52;;;;;;;30.67;18.20;;;19.80;99.90;;;;;;4955355;28;20280;-66
2023/09/18 08:59:22;;;;;;;24.10;18.45;;;19.80;99.90;;;;;;4970962;28;22007;-67
2023/09/18 09:01:48;;;;;;;28.50;18.63;;;19.80;99.90;;;;;;4969701;28;20205;-66
2023/09/18 09:04:14;;;;;;;26.35;17.48;;;19.90;99.90;;;;;;4968107;28;20208;-68
2023/09/18 09:06:40;;;;;;;24.38;17.58;;;20.00;99.90;;;;;;4971374;28;20280;-68
2023/09/18 09:09:07;;;;;;;29.85;19.25;;;20.00;99.90;;;;;;4972570;28;20190;-68
2023/09/18 09:11:34;;;;;;;24.20;18.15;;;20.10;99.90;;;;;;4972569;28;20218;-66
2023/09/18 09:14:11;;;;;;;22.52;16.85;;;20.10;99.90;;;;;;4949976;28;20197;-69
2023/09/18 09:16:40;;;;;;;28.73;18.60;;;20.10;99.90;;;;;;4968214;28;20216;-66
2023/09/18 09:19:06;;;;;;;24.95;17.35;;;20.10;99.90;;;;;;4978454;28;20202;-71
2023/09/18 09:21:40;;;;;;;26.20;17.25;;;20.10;99.90;;;;;;4966533;28;20626;-67
2023/09/18 09:24:06;;;;;;;28.17;17.40;;;20.10;99.90;;;;;;4953810;28;20268;-68
2023/09/18 09:26:32;;;;;;;22.83;16.85;;;20.10;99.90;;;;;;4976300;28;20619;-68
2023/09/18 09:29:20;;;;;;;21.48;16.08;;;20.20;99.90;;;;;;4961509;28;20721;-68
2023/09/18 09:31:47;;;;;;;23.35;16.95;;;20.20;99.90;;;;;;4979219;28;20732;-68
2023/09/18 09:34:28;;;;;;;23.75;16.73;;;20.30;99.90;;;;;;4962527;28;20190;-66
2023/09/18 09:36:55;;;;;;;21.42;16.02;;;20.40;99.90;;;;;;4978605;28;20209;-69
2023/09/18 09:39:24;;;;;;;24.25;15.43;;;20.40;99.90;;;;;;4978245;28;20198;-65
2023/09/18 09:41:54;;;;;;;24.55;15.85;;;20.50;99.90;;;;;;4974945;28;20278;-67
2023/09/18 09:44:23;;;;;;;24.75;15.45;;;20.60;99.90;;;;;;4981393;28;20649;-65
2023/09/18 09:46:51;;;;;;;19.33;14.52;;;20.60;99.90;;;;;;4948656;28;20225;-65
2023/09/18 09:49:19;;;;;;;24.92;15.55;;;20.70;99.90;;;;;;4981117;28;20259;-67
2023/09/18 09:51:46;;;;;;;24.08;16.00;;;20.80;99.90;;;;;;4978421;28;20298;-68
2023/09/18 09:54:13;;;;;;;22.02;15.63;;;20.80;99.90;;;;;;4978461;28;20185;-66
2023/09/18 09:56:53;;;;;;;20.65;15.43;;;20.90;99.90;;;;;;4979452;28;20324;-67
2023/09/18 09:59:20;;;;;;;20.38;15.13;;;20.90;99.90;;;;;;4979734;28;20178;-68
2023/09/18 10:01:50;;;;;;;30.67;17.15;;;20.90;99.90;;;;;;4971315;28;20205;-69
2023/09/18 10:04:17;;;;;;;24.85;17.90;;;21.00;99.90;;;;;;4972892;28;20921;-69
2023/09/18 10:06:47;;;;;;;23.67;16.73;;;21.00;99.90;;;;;;4955658;28;20194;-69
2023/09/18 10:09:15;;;;;;;21.02;16.60;;;21.10;99.90;;;;;;4974691;28;20189;-67
2023/09/18 10:11:45;;;;;;;23.27;16.63;;;21.10;99.90;;;;;;4977122;28;20228;-70
2023/09/18 10:14:29;;;;;;;24.65;16.23;;;21.20;99.90;;;;;;4974645;28;22277;-70
2023/09/18 10:16:56;;;;;;;21.05;15.38;;;21.30;99.90;;;;;;4951466;28;20190;-69
2023/09/18 10:19:45;;;;;;;26.65;16.55;;;21.40;99.90;;;;;;4978545;28;20186;-70
2023/09/18 10:22:37;;;;;;;21.35;16.65;;;21.50;99.90;;;;;;4960519;28;20190;-73
2023/09/18 10:25:22;;;;;;;24.73;16.27;;;21.60;99.90;;;;;;4975467;28;20233;-69
2023/09/18 10:27:54;;;;;;;21.48;16.15;;;21.70;99.90;;;;;;4976555;28;20193;-68
2023/09/18 10:30:22;;;;;;;21.30;16.25;;;21.80;99.90;;;;;;4974729;28;20201;-71
2023/09/18 10:32:50;;;;;;;25.55;16.70;;;21.90;99.90;;;;;;4962650;28;20295;-70
2023/09/18 10:35:16;;;;;;;25.88;18.30;;;22.00;99.90;;;;;;4971345;28;20260;-72
2023/09/18 10:37:45;;;;;;;23.00;16.45;;;22.10;99.90;;;;;;4961661;28;20178;-71
2023/09/18 10:40:12;;;;;;;28.38;16.42;;;22.10;99.90;;;;;;4959688;28;20197;-70
2023/09/18 10:42:41;;;;;;;19.67;16.13;;;22.20;99.90;;;;;;4974902;28;20627;-70
2023/09/18 10:45:10;;;;;;;20.27;14.85;;;22.30;99.90;;;;;;4974442;28;20637;-72
2023/09/18 10:47:40;;;;;;;22.02;15.07;;;22.40;99.90;;;;;;4974583;28;20244;-69
2023/09/18 10:50:08;;;;;;;19.35;14.68;;;22.40;99.90;;;;;;4956915;28;20193;-70
2023/09/18 10:52:44;;;;;;;15.70;12.50;;;22.50;99.90;;;;;;4975140;28;20561;-69
2023/09/18 10:55:14;;;;;;;14.82;11.90;;;22.70;99.90;;;;;;4937915;28;20197;-73
2023/09/18 10:57:57;;;;;;;18.67;10.85;;;22.80;99.90;;;;;;4951097;28;20969;-71
2023/09/18 11:00:28;;;;;;;12.68;10.10;;;22.90;99.90;;;;;;4955065;28;20265;-72
2023/09/18 11:03:19;;;;;;;13.20;9.95;;;23.00;99.90;;;;;;4955101;29;20241;-76
2023/09/18 11:05:46;;;;;;;12.93;9.35;;;23.10;99.90;;;;;;4953177;28;20178;-67
2023/09/18 11:08:35;;;;;;;13.25;9.32;;;23.20;99.90;;;;;;4952071;29;20179;-70
2023/09/18 11:11:11;;;;;;;14.02;9.30;;;23.10;99.90;;;;;;4948506;28;20214;-70
2023/09/18 11:13:41;;;;;;;16.52;8.82;;;23.10;99.90;;;;;;4943886;28;20194;-71
2023/09/18 11:16:27;;;;;;;17.02;8.85;;;23.00;99.90;;;;;;4954939;28;20201;-70
2023/09/18 11:19:17;;;;;;;9.73;7.93;;;23.00;99.90;;;;;;4943759;28;20206;-73
2023/09/18 11:21:43;;;;;;;9.65;7.88;;;23.00;99.90;;;;;;4953122;28;20187;-72
2023/09/18 11:24:21;;;;;;;13.18;7.32;;;23.00;99.90;;;;;;4954791;28;20191;-74
2023/09/18 11:26:49;;;;;;;7.65;6.32;;;23.00;99.90;;;;;;4954113;28;20650;-72
2023/09/18 11:29:19;;;;;;;9.50;7.15;;;23.10;99.90;;;;;;4952687;29;20183;-72
2023/09/18 11:31:53;;;;;;;7.88;6.60;;;23.00;99.90;;;;;;4954649;28;20207;-69
2023/09/18 11:34:31;;;;;;;8.25;6.88;;;23.00;99.90;;;;;;4950023;28;20190;-71
2023/09/18 11:36:58;;;;;;;10.93;7.00;;;23.10;99.90;;;;;;4948826;29;20178;-70
2023/09/18 11:39:38;;;;;;;9.45;6.40;;;23.10;99.90;;;;;;4952723;28;20273;-72
2023/09/18 11:42:19;;;;;;;11.95;7.28;;;23.20;99.90;;;;;;4953067;29;20722;-71
2023/09/18 11:44:48;;;;;;;10.15;6.00;;;23.20;99.90;;;;;;4945622;29;20179;-70
2023/09/18 11:47:24;;;;;;;8.88;5.80;;;23.20;99.90;;;;;;4951712;28;20282;-73
2023/09/18 11:49:59;;;;;;;11.82;5.80;;;23.20;99.90;;;;;;4942543;29;20275;-73
2023/09/18 11:52:27;;;;;;;7.60;5.90;;;23.20;99.90;;;;;;4950412;29;20256;-72
2023/09/18 11:54:56;;;;;;;7.55;5.50;;;23.20;99.90;;;;;;4952608;29;20285;-71
2023/09/18 11:57:23;;;;;;;12.63;5.63;;;23.20;99.90;;;;;;4961774;28;20637;-71
2023/09/18 11:59:50;;;;;;;8.35;6.00;;;23.20;99.90;;;;;;4973315;28;20201;-71
2023/09/18 12:02:27;;;;;;;11.30;6.07;;;23.20;99.90;;;;;;4955597;28;20178;-70
2023/09/18 12:04:56;;;;;;;14.70;6.65;;;23.30;99.90;;;;;;4973771;28;20240;-72
2023/09/18 12:07:24;;;;;;;9.43;6.00;;;23.20;99.90;;;;;;4973526;28;20178;-71
2023/09/18 12:09:50;;;;;;;8.82;5.65;;;23.20;99.90;;;;;;4972674;28;20694;-71
2023/09/18 12:12:17;;;;;;;8.95;5.25;;;23.30;99.90;;;;;;4970880;28;20206;-71
2023/09/18 12:14:44;;;;;;;9.50;5.43;;;23.30;99.90;;;;;;4969595;28;20182;-72
2023/09/18 12:17:18;;;;;;;7.18;5.38;;;23.40;99.90;;;;;;4973128;28;20198;-72
2023/09/18 12:19:53;;;;;;;9.52;5.20;;;23.60;99.90;;;;;;4973119;28;20308;-71
2023/09/18 12:22:25;;;;;;;11.20;5.28;;;23.70;99.90;;;;;;4970692;28;20225;-72
2023/09/18 12:24:50;;;;;;;9.52;5.05;;;23.80;99.90;;;;;;4960899;28;20264;-71
2023/09/18 12:27:16;;;;;;;9.02;5.13;;;23.80;99.90;;;;;;4973298;28;20278;-72
2023/09/18 12:29:43;;;;;;;7.95;5.10;;;23.80;99.90;;;;;;4972970;28;20212;-71
2023/09/18 12:32:13;;;;;;;8.15;6.00;;;23.90;99.90;;;;;;4973672;28;20209;-71
2023/09/18 12:34:42;;;;;;;10.13;4.53;;;23.90;99.90;;;;;;4951614;28;20186;-70